sensor_id;sensor_type;location;lat;lon;timestamp;P1;durP1;ratioP1;P2;durP2;ratioP2
9898;SDS011;4988;49.238;6.698;2023-08-24T00:00:14;10.47;;;5.50;;
9898;SDS011;4988;49.238;6.698;2023-08-24T00:02:40;9.60;;;5.43;;
9898;SDS011;4988;49.238;6.698;2023-08-24T00:05:06;8.53;;;5.30;;
9898;SDS011;4988;49.238;6.698;2023-08-24T00:07:31;12.23;;;5.73;;
9898;SDS011;4988;49.238;6.698;2023-08-24T00:09:57;14.57;;;6.00;;
9898;SDS011;4988;49.238;6.698;2023-08-24T00:12:23;12.83;;;5.70;;
9898;SDS011;4988;49.238;6.698;2023-08-24T00:14:48;13.13;;;5.80;;
9898;SDS011;4988;49.238;6.698;2023-08-24T00:17:14;12.73;;;6.50;;
9898;SDS011;4988;49.238;6.698;2023-08-24T00:19:40;11.13;;;5.53;;
9898;SDS011;4988;49.238;6.698;2023-08-24T00:22:05;9.60;;;4.90;;
9898;SDS011;4988;49.238;6.698;2023-08-24T00:24:30;12.97;;;5.47;;
9898;SDS011;4988;49.238;6.698;2023-08-24T00:26:55;9.87;;;4.97;;
9898;SDS011;4988;49.238;6.698;2023-08-24T00:29:21;11.27;;;5.13;;
9898;SDS011;4988;49.238;6.698;2023-08-24T00:31:47;9.73;;;5.40;;
9898;SDS011;4988;49.238;6.698;2023-08-24T00:34:12;10.70;;;5.10;;
9898;SDS011;4988;49.238;6.698;2023-08-24T00:36:37;12.53;;;6.10;;
9898;SDS011;4988;49.238;6.698;2023-08-24T00:39:03;11.47;;;6.10;;
9898;SDS011;4988;49.238;6.698;2023-08-24T00:41:28;10.70;;;5.80;;
9898;SDS011;4988;49.238;6.698;2023-08-24T00:43:53;11.77;;;5.70;;
9898;SDS011;4988;49.238;6.698;2023-08-24T00:46:19;9.07;;;5.57;;
9898;SDS011;4988;49.238;6.698;2023-08-24T00:48:44;11.00;;;5.63;;
9898;SDS011;4988;49.238;6.698;2023-08-24T00:51:10;12.30;;;5.63;;
9898;SDS011;4988;49.238;6.698;2023-08-24T00:53:35;12.60;;;5.60;;
9898;SDS011;4988;49.238;6.698;2023-08-24T00:56:01;12.57;;;5.30;;
9898;SDS011;4988;49.238;6.698;2023-08-24T00:58:28;10.67;;;5.37;;
9898;SDS011;4988;49.238;6.698;2023-08-24T01:00:54;8.33;;;5.30;;
9898;SDS011;4988;49.238;6.698;2023-08-24T01:03:22;10.77;;;5.40;;
9898;SDS011;4988;49.238;6.698;2023-08-24T01:05:48;9.10;;;5.50;;
9898;SDS011;4988;49.238;6.698;2023-08-24T01:08:13;10.77;;;5.90;;
9898;SDS011;4988;49.238;6.698;2023-08-24T01:10:52;10.23;;;5.77;;
9898;SDS011;4988;49.238;6.698;2023-08-24T01:13:30;10.63;;;5.47;;
9898;SDS011;4988;49.238;6.698;2023-08-24T01:16:04;9.47;;;5.83;;
9898;SDS011;4988;49.238;6.698;2023-08-24T01:18:34;11.27;;;5.90;;
9898;SDS011;4988;49.238;6.698;2023-08-24T01:21:01;10.73;;;6.20;;
9898;SDS011;4988;49.238;6.698;2023-08-24T01:23:30;10.57;;;5.90;;
9898;SDS011;4988;49.238;6.698;2023-08-24T01:28:42;18.27;;;6.63;;
9898;SDS011;4988;49.238;6.698;2023-08-24T01:31:08;13.47;;;6.83;;
9898;SDS011;4988;49.238;6.698;2023-08-24T01:33:34;14.90;;;6.97;;
9898;SDS011;4988;49.238;6.698;2023-08-24T01:36:00;14.20;;;7.30;;
9898;SDS011;4988;49.238;6.698;2023-08-24T01:38:25;20.07;;;7.40;;
9898;SDS011;4988;49.238;6.698;2023-08-24T01:40:53;15.97;;;6.10;;
9898;SDS011;4988;49.238;6.698;2023-08-24T01:43:30;16.40;;;6.57;;
9898;SDS011;4988;49.238;6.698;2023-08-24T01:46:02;17.40;;;5.90;;
9898;SDS011;4988;49.238;6.698;2023-08-24T01:48:29;18.43;;;6.40;;
9898;SDS011;4988;49.238;6.698;2023-08-24T01:50:56;12.70;;;5.63;;
9898;SDS011;4988;49.238;6.698;2023-08-24T01:53:22;10.53;;;5.80;;
9898;SDS011;4988;49.238;6.698;2023-08-24T01:55:47;9.87;;;5.73;;
9898;SDS011;4988;49.238;6.698;2023-08-24T01:58:13;10.30;;;5.67;;
9898;SDS011;4988;49.238;6.698;2023-08-24T02:00:38;14.67;;;5.80;;
9898;SDS011;4988;49.238;6.698;2023-08-24T02:03:03;7.67;;;5.27;;
9898;SDS011;4988;49.238;6.698;2023-08-24T02:05:29;11.87;;;5.23;;
9898;SDS011;4988;49.238;6.698;2023-08-24T02:07:54;14.27;;;5.50;;
9898;SDS011;4988;49.238;6.698;2023-08-24T02:10:20;11.97;;;5.60;;
9898;SDS011;4988;49.238;6.698;2023-08-24T02:12:45;12.60;;;5.73;;
9898;SDS011;4988;49.238;6.698;2023-08-24T02:15:11;10.30;;;5.90;;
9898;SDS011;4988;49.238;6.698;2023-08-24T02:17:36;10.87;;;5.97;;
9898;SDS011;4988;49.238;6.698;2023-08-24T02:20:02;10.23;;;5.00;;
9898;SDS011;4988;49.238;6.698;2023-08-24T02:22:28;13.40;;;5.33;;
9898;SDS011;4988;49.238;6.698;2023-08-24T02:24:55;9.07;;;5.30;;
9898;SDS011;4988;49.238;6.698;2023-08-24T02:27:21;15.63;;;5.77;;
9898;SDS011;4988;49.238;6.698;2023-08-24T02:29:46;10.40;;;5.63;;
9898;SDS011;4988;49.238;6.698;2023-08-24T02:32:11;11.97;;;5.70;;
9898;SDS011;4988;49.238;6.698;2023-08-24T02:34:36;11.77;;;5.60;;
9898;SDS011;4988;49.238;6.698;2023-08-24T02:37:02;11.03;;;5.83;;
9898;SDS011;4988;49.238;6.698;2023-08-24T02:39:27;12.47;;;5.57;;
9898;SDS011;4988;49.238;6.698;2023-08-24T02:41:52;9.93;;;5.70;;
9898;SDS011;4988;49.238;6.698;2023-08-24T02:44:18;10.57;;;5.90;;
9898;SDS011;4988;49.238;6.698;2023-08-24T02:46:47;12.97;;;5.73;;
9898;SDS011;4988;49.238;6.698;2023-08-24T02:49:13;9.73;;;5.70;;
9898;SDS011;4988;49.238;6.698;2023-08-24T02:51:38;9.93;;;5.47;;
9898;SDS011;4988;49.238;6.698;2023-08-24T02:54:04;10.53;;;6.00;;
9898;SDS011;4988;49.238;6.698;2023-08-24T02:56:30;10.53;;;5.57;;
9898;SDS011;4988;49.238;6.698;2023-08-24T02:58:55;11.30;;;5.77;;
9898;SDS011;4988;49.238;6.698;2023-08-24T03:01:20;11.13;;;5.73;;
9898;SDS011;4988;49.238;6.698;2023-08-24T03:03:46;12.10;;;5.63;;
9898;SDS011;4988;49.238;6.698;2023-08-24T03:06:11;12.73;;;6.13;;
9898;SDS011;4988;49.238;6.698;2023-08-24T03:08:37;10.60;;;6.30;;
9898;SDS011;4988;49.238;6.698;2023-08-24T03:11:02;11.80;;;6.30;;
9898;SDS011;4988;49.238;6.698;2023-08-24T03:13:28;15.53;;;6.33;;
9898;SDS011;4988;49.238;6.698;2023-08-24T03:15:54;11.33;;;5.80;;
9898;SDS011;4988;49.238;6.698;2023-08-24T03:18:20;12.93;;;6.30;;
9898;SDS011;4988;49.238;6.698;2023-08-24T03:20:46;13.57;;;6.47;;
9898;SDS011;4988;49.238;6.698;2023-08-24T03:23:13;7.33;;;5.43;;
9898;SDS011;4988;49.238;6.698;2023-08-24T03:25:40;12.93;;;5.87;;
9898;SDS011;4988;49.238;6.698;2023-08-24T03:28:06;11.97;;;6.10;;
9898;SDS011;4988;49.238;6.698;2023-08-24T03:30:37;11.10;;;6.00;;
9898;SDS011;4988;49.238;6.698;2023-08-24T03:33:04;9.27;;;5.80;;
9898;SDS011;4988;49.238;6.698;2023-08-24T03:35:33;12.23;;;5.60;;
9898;SDS011;4988;49.238;6.698;2023-08-24T03:37:59;10.67;;;5.43;;
9898;SDS011;4988;49.238;6.698;2023-08-24T03:40:25;11.37;;;5.37;;
9898;SDS011;4988;49.238;6.698;2023-08-24T03:42:50;13.27;;;6.67;;
9898;SDS011;4988;49.238;6.698;2023-08-24T03:45:15;13.03;;;6.20;;
9898;SDS011;4988;49.238;6.698;2023-08-24T03:47:41;14.53;;;6.10;;
9898;SDS011;4988;49.238;6.698;2023-08-24T03:50:06;14.43;;;5.83;;
9898;SDS011;4988;49.238;6.698;2023-08-24T03:52:32;10.27;;;6.00;;
9898;SDS011;4988;49.238;6.698;2023-08-24T03:54:58;10.67;;;6.70;;
9898;SDS011;4988;49.238;6.698;2023-08-24T03:57:23;12.33;;;6.60;;
9898;SDS011;4988;49.238;6.698;2023-08-24T03:59:49;12.53;;;7.13;;
9898;SDS011;4988;49.238;6.698;2023-08-24T04:02:14;13.90;;;7.40;;
9898;SDS011;4988;49.238;6.698;2023-08-24T04:04:40;12.30;;;7.00;;
9898;SDS011;4988;49.238;6.698;2023-08-24T04:07:05;11.83;;;7.03;;
9898;SDS011;4988;49.238;6.698;2023-08-24T04:09:30;14.13;;;7.20;;
9898;SDS011;4988;49.238;6.698;2023-08-24T04:11:55;16.30;;;7.97;;
9898;SDS011;4988;49.238;6.698;2023-08-24T04:14:21;12.47;;;7.70;;
9898;SDS011;4988;49.238;6.698;2023-08-24T04:16:46;13.27;;;7.00;;
9898;SDS011;4988;49.238;6.698;2023-08-24T04:19:12;12.93;;;7.40;;
9898;SDS011;4988;49.238;6.698;2023-08-24T04:21:38;11.80;;;6.73;;
9898;SDS011;4988;49.238;6.698;2023-08-24T04:24:03;11.87;;;6.70;;
9898;SDS011;4988;49.238;6.698;2023-08-24T04:26:28;14.67;;;6.77;;
9898;SDS011;4988;49.238;6.698;2023-08-24T04:28:54;12.87;;;6.67;;
9898;SDS011;4988;49.238;6.698;2023-08-24T04:31:19;13.00;;;6.53;;
9898;SDS011;4988;49.238;6.698;2023-08-24T04:33:45;11.50;;;6.20;;
9898;SDS011;4988;49.238;6.698;2023-08-24T04:36:10;11.93;;;6.53;;
9898;SDS011;4988;49.238;6.698;2023-08-24T04:38:35;10.30;;;6.17;;
9898;SDS011;4988;49.238;6.698;2023-08-24T04:41:01;12.27;;;6.37;;
9898;SDS011;4988;49.238;6.698;2023-08-24T04:43:26;13.47;;;5.53;;
9898;SDS011;4988;49.238;6.698;2023-08-24T04:45:53;12.23;;;5.73;;
9898;SDS011;4988;49.238;6.698;2023-08-24T04:48:20;11.70;;;5.83;;
9898;SDS011;4988;49.238;6.698;2023-08-24T04:50:46;11.13;;;5.60;;
9898;SDS011;4988;49.238;6.698;2023-08-24T04:53:13;13.10;;;5.27;;
9898;SDS011;4988;49.238;6.698;2023-08-24T04:55:40;9.57;;;5.50;;
9898;SDS011;4988;49.238;6.698;2023-08-24T04:58:06;11.27;;;5.33;;
9898;SDS011;4988;49.238;6.698;2023-08-24T05:00:33;10.03;;;5.57;;
9898;SDS011;4988;49.238;6.698;2023-08-24T05:02:58;9.90;;;5.07;;
9898;SDS011;4988;49.238;6.698;2023-08-24T05:05:24;8.60;;;4.90;;
9898;SDS011;4988;49.238;6.698;2023-08-24T05:07:49;10.47;;;4.87;;
9898;SDS011;4988;49.238;6.698;2023-08-24T05:10:15;9.40;;;4.87;;
9898;SDS011;4988;49.238;6.698;2023-08-24T05:12:40;9.67;;;4.63;;
9898;SDS011;4988;49.238;6.698;2023-08-24T05:15:06;8.13;;;5.10;;
9898;SDS011;4988;49.238;6.698;2023-08-24T05:17:31;12.37;;;5.13;;
9898;SDS011;4988;49.238;6.698;2023-08-24T05:19:57;10.07;;;5.30;;
9898;SDS011;4988;49.238;6.698;2023-08-24T05:22:23;11.97;;;5.13;;
9898;SDS011;4988;49.238;6.698;2023-08-24T05:24:49;10.90;;;5.07;;
9898;SDS011;4988;49.238;6.698;2023-08-24T05:27:14;10.63;;;5.20;;
9898;SDS011;4988;49.238;6.698;2023-08-24T05:29:40;11.60;;;5.53;;
9898;SDS011;4988;49.238;6.698;2023-08-24T05:32:06;8.37;;;4.97;;
9898;SDS011;4988;49.238;6.698;2023-08-24T05:34:31;11.40;;;5.47;;
9898;SDS011;4988;49.238;6.698;2023-08-24T05:36:57;12.07;;;5.30;;
9898;SDS011;4988;49.238;6.698;2023-08-24T05:39:22;10.77;;;5.23;;
9898;SDS011;4988;49.238;6.698;2023-08-24T05:41:50;14.83;;;5.10;;
9898;SDS011;4988;49.238;6.698;2023-08-24T05:44:16;11.20;;;5.20;;
9898;SDS011;4988;49.238;6.698;2023-08-24T05:46:42;7.73;;;4.40;;
9898;SDS011;4988;49.238;6.698;2023-08-24T05:49:07;9.30;;;4.50;;
9898;SDS011;4988;49.238;6.698;2023-08-24T05:51:32;10.60;;;5.20;;
9898;SDS011;4988;49.238;6.698;2023-08-24T05:53:58;7.37;;;4.20;;
9898;SDS011;4988;49.238;6.698;2023-08-24T05:56:23;7.90;;;4.60;;
9898;SDS011;4988;49.238;6.698;2023-08-24T05:58:48;11.43;;;4.30;;
9898;SDS011;4988;49.238;6.698;2023-08-24T06:01:14;9.93;;;4.93;;
9898;SDS011;4988;49.238;6.698;2023-08-24T06:03:39;7.80;;;4.00;;
9898;SDS011;4988;49.238;6.698;2023-08-24T06:06:05;7.03;;;4.23;;
9898;SDS011;4988;49.238;6.698;2023-08-24T06:08:30;10.93;;;4.13;;
9898;SDS011;4988;49.238;6.698;2023-08-24T06:10:56;10.27;;;4.30;;
9898;SDS011;4988;49.238;6.698;2023-08-24T06:13:22;8.43;;;4.30;;
9898;SDS011;4988;49.238;6.698;2023-08-24T06:15:48;11.83;;;4.07;;
9898;SDS011;4988;49.238;6.698;2023-08-24T06:18:13;10.07;;;3.93;;
9898;SDS011;4988;49.238;6.698;2023-08-24T06:20:39;13.47;;;4.37;;
9898;SDS011;4988;49.238;6.698;2023-08-24T06:23:04;10.73;;;4.43;;
9898;SDS011;4988;49.238;6.698;2023-08-24T06:25:30;14.33;;;4.70;;
9898;SDS011;4988;49.238;6.698;2023-08-24T06:27:56;11.37;;;4.67;;
9898;SDS011;4988;49.238;6.698;2023-08-24T06:30:23;14.27;;;5.00;;
9898;SDS011;4988;49.238;6.698;2023-08-24T06:32:49;14.33;;;4.90;;
9898;SDS011;4988;49.238;6.698;2023-08-24T06:35:17;11.60;;;4.83;;
9898;SDS011;4988;49.238;6.698;2023-08-24T06:37:54;14.57;;;4.70;;
9898;SDS011;4988;49.238;6.698;2023-08-24T06:40:29;12.00;;;4.30;;
9898;SDS011;4988;49.238;6.698;2023-08-24T06:42:57;10.07;;;4.70;;
9898;SDS011;4988;49.238;6.698;2023-08-24T06:45:39;12.60;;;5.00;;
9898;SDS011;4988;49.238;6.698;2023-08-24T06:48:17;8.00;;;4.80;;
9898;SDS011;4988;49.238;6.698;2023-08-24T06:50:57;8.13;;;4.37;;
9898;SDS011;4988;49.238;6.698;2023-08-24T06:53:36;11.23;;;4.87;;
9898;SDS011;4988;49.238;6.698;2023-08-24T06:56:01;8.77;;;4.43;;
9898;SDS011;4988;49.238;6.698;2023-08-24T06:58:27;14.83;;;4.67;;
9898;SDS011;4988;49.238;6.698;2023-08-24T07:00:52;12.93;;;5.30;;
9898;SDS011;4988;49.238;6.698;2023-08-24T07:03:18;7.87;;;4.93;;
9898;SDS011;4988;49.238;6.698;2023-08-24T07:05:43;12.10;;;4.60;;
9898;SDS011;4988;49.238;6.698;2023-08-24T07:08:10;9.23;;;4.47;;
9898;SDS011;4988;49.238;6.698;2023-08-24T07:10:35;9.70;;;4.47;;
9898;SDS011;4988;49.238;6.698;2023-08-24T07:13:06;6.33;;;3.93;;
9898;SDS011;4988;49.238;6.698;2023-08-24T07:15:36;9.27;;;4.10;;
9898;SDS011;4988;49.238;6.698;2023-08-24T07:18:04;5.97;;;3.80;;
9898;SDS011;4988;49.238;6.698;2023-08-24T07:20:33;6.40;;;3.77;;
9898;SDS011;4988;49.238;6.698;2023-08-24T07:22:59;6.67;;;3.97;;
9898;SDS011;4988;49.238;6.698;2023-08-24T07:25:25;8.50;;;4.20;;
9898;SDS011;4988;49.238;6.698;2023-08-24T07:27:51;8.60;;;3.90;;
9898;SDS011;4988;49.238;6.698;2023-08-24T07:30:17;8.97;;;3.77;;
9898;SDS011;4988;49.238;6.698;2023-08-24T07:32:42;9.67;;;3.83;;
9898;SDS011;4988;49.238;6.698;2023-08-24T07:35:07;8.20;;;3.83;;
9898;SDS011;4988;49.238;6.698;2023-08-24T07:37:33;9.27;;;4.20;;
9898;SDS011;4988;49.238;6.698;2023-08-24T07:39:58;6.43;;;4.03;;
9898;SDS011;4988;49.238;6.698;2023-08-24T07:42:23;8.70;;;4.20;;
9898;SDS011;4988;49.238;6.698;2023-08-24T07:44:49;8.60;;;3.90;;
9898;SDS011;4988;49.238;6.698;2023-08-24T07:47:15;5.73;;;4.20;;
9898;SDS011;4988;49.238;6.698;2023-08-24T07:49:40;6.53;;;3.83;;
9898;SDS011;4988;49.238;6.698;2023-08-24T07:52:09;10.43;;;4.10;;
9898;SDS011;4988;49.238;6.698;2023-08-24T07:54:36;8.13;;;4.20;;
9898;SDS011;4988;49.238;6.698;2023-08-24T07:57:01;9.20;;;4.57;;
9898;SDS011;4988;49.238;6.698;2023-08-24T07:59:26;16.07;;;4.37;;
9898;SDS011;4988;49.238;6.698;2023-08-24T08:01:52;7.83;;;4.30;;
9898;SDS011;4988;49.238;6.698;2023-08-24T08:04:17;14.27;;;4.67;;
9898;SDS011;4988;49.238;6.698;2023-08-24T08:06:42;9.53;;;4.10;;
9898;SDS011;4988;49.238;6.698;2023-08-24T08:09:08;10.47;;;4.90;;
9898;SDS011;4988;49.238;6.698;2023-08-24T08:11:33;11.87;;;4.30;;
9898;SDS011;4988;49.238;6.698;2023-08-24T08:13:59;12.30;;;4.60;;
9898;SDS011;4988;49.238;6.698;2023-08-24T08:16:25;10.77;;;4.70;;
9898;SDS011;4988;49.238;6.698;2023-08-24T08:18:50;9.73;;;4.47;;
9898;SDS011;4988;49.238;6.698;2023-08-24T08:21:16;10.57;;;4.77;;
9898;SDS011;4988;49.238;6.698;2023-08-24T08:23:45;12.13;;;4.53;;
9898;SDS011;4988;49.238;6.698;2023-08-24T08:26:10;8.03;;;4.37;;
9898;SDS011;4988;49.238;6.698;2023-08-24T08:28:36;10.43;;;4.40;;
9898;SDS011;4988;49.238;6.698;2023-08-24T08:31:01;7.30;;;4.20;;
9898;SDS011;4988;49.238;6.698;2023-08-24T08:33:28;8.03;;;4.13;;
9898;SDS011;4988;49.238;6.698;2023-08-24T08:35:54;8.20;;;3.70;;
9898;SDS011;4988;49.238;6.698;2023-08-24T08:38:20;6.13;;;3.77;;
9898;SDS011;4988;49.238;6.698;2023-08-24T08:40:50;5.27;;;3.67;;
9898;SDS011;4988;49.238;6.698;2023-08-24T08:43:16;7.03;;;3.77;;
9898;SDS011;4988;49.238;6.698;2023-08-24T08:45:41;5.70;;;4.27;;
9898;SDS011;4988;49.238;6.698;2023-08-24T08:48:07;7.23;;;4.00;;
9898;SDS011;4988;49.238;6.698;2023-08-24T08:50:33;6.07;;;3.97;;
9898;SDS011;4988;49.238;6.698;2023-08-24T08:53:00;5.37;;;3.70;;
9898;SDS011;4988;49.238;6.698;2023-08-24T08:55:25;7.10;;;3.57;;
9898;SDS011;4988;49.238;6.698;2023-08-24T08:57:51;5.57;;;3.77;;
9898;SDS011;4988;49.238;6.698;2023-08-24T09:00:23;7.37;;;3.67;;
9898;SDS011;4988;49.238;6.698;2023-08-24T09:02:49;9.10;;;3.30;;
9898;SDS011;4988;49.238;6.698;2023-08-24T09:05:17;6.93;;;3.37;;
9898;SDS011;4988;49.238;6.698;2023-08-24T09:07:42;7.23;;;3.73;;
9898;SDS011;4988;49.238;6.698;2023-08-24T09:10:09;5.43;;;3.40;;
9898;SDS011;4988;49.238;6.698;2023-08-24T09:12:34;5.47;;;3.70;;
9898;SDS011;4988;49.238;6.698;2023-08-24T09:15:04;8.37;;;3.33;;
9898;SDS011;4988;49.238;6.698;2023-08-24T09:17:31;8.87;;;3.73;;
9898;SDS011;4988;49.238;6.698;2023-08-24T09:20:00;6.10;;;3.50;;
9898;SDS011;4988;49.238;6.698;2023-08-24T09:22:38;5.43;;;3.63;;
9898;SDS011;4988;49.238;6.698;2023-08-24T09:25:06;4.57;;;3.13;;
9898;SDS011;4988;49.238;6.698;2023-08-24T09:27:34;6.57;;;3.60;;
9898;SDS011;4988;49.238;6.698;2023-08-24T09:29:59;6.80;;;3.43;;
9898;SDS011;4988;49.238;6.698;2023-08-24T09:32:28;7.60;;;3.17;;
9898;SDS011;4988;49.238;6.698;2023-08-24T09:34:56;5.93;;;3.63;;
9898;SDS011;4988;49.238;6.698;2023-08-24T09:37:31;7.70;;;3.70;;
9898;SDS011;4988;49.238;6.698;2023-08-24T09:40:02;10.53;;;3.60;;
9898;SDS011;4988;49.238;6.698;2023-08-24T09:42:39;5.27;;;3.60;;
9898;SDS011;4988;49.238;6.698;2023-08-24T09:45:07;6.43;;;3.50;;
9898;SDS011;4988;49.238;6.698;2023-08-24T09:47:36;6.17;;;3.70;;
9898;SDS011;4988;49.238;6.698;2023-08-24T09:50:02;7.43;;;3.83;;
9898;SDS011;4988;49.238;6.698;2023-08-24T09:52:29;7.37;;;3.80;;
9898;SDS011;4988;49.238;6.698;2023-08-24T09:54:57;4.83;;;3.40;;
9898;SDS011;4988;49.238;6.698;2023-08-24T09:57:41;6.90;;;3.60;;
9898;SDS011;4988;49.238;6.698;2023-08-24T10:00:08;6.10;;;3.83;;
9898;SDS011;4988;49.238;6.698;2023-08-24T10:02:49;7.37;;;3.87;;
9898;SDS011;4988;49.238;6.698;2023-08-24T10:05:20;7.17;;;3.60;;
9898;SDS011;4988;49.238;6.698;2023-08-24T10:07:51;8.03;;;3.70;;
9898;SDS011;4988;49.238;6.698;2023-08-24T10:10:19;10.37;;;4.00;;
9898;SDS011;4988;49.238;6.698;2023-08-24T10:12:47;7.23;;;4.00;;
9898;SDS011;4988;49.238;6.698;2023-08-24T10:15:15;8.37;;;3.70;;
9898;SDS011;4988;49.238;6.698;2023-08-24T10:17:43;5.30;;;3.73;;
9898;SDS011;4988;49.238;6.698;2023-08-24T10:20:09;8.03;;;4.00;;
9898;SDS011;4988;49.238;6.698;2023-08-24T10:22:36;8.57;;;4.00;;
9898;SDS011;4988;49.238;6.698;2023-08-24T10:25:02;9.10;;;4.53;;
9898;SDS011;4988;49.238;6.698;2023-08-24T10:27:29;7.17;;;4.20;;
9898;SDS011;4988;49.238;6.698;2023-08-24T10:29:55;11.83;;;4.70;;
9898;SDS011;4988;49.238;6.698;2023-08-24T10:32:21;5.00;;;3.93;;
9898;SDS011;4988;49.238;6.698;2023-08-24T10:34:49;6.93;;;3.70;;
9898;SDS011;4988;49.238;6.698;2023-08-24T10:37:14;7.43;;;4.07;;
9898;SDS011;4988;49.238;6.698;2023-08-24T10:39:44;8.10;;;3.73;;
9898;SDS011;4988;49.238;6.698;2023-08-24T10:42:11;9.23;;;4.27;;
9898;SDS011;4988;49.238;6.698;2023-08-24T10:44:37;5.63;;;4.00;;
9898;SDS011;4988;49.238;6.698;2023-08-24T10:49:33;6.43;;;3.77;;
9898;SDS011;4988;49.238;6.698;2023-08-24T10:52:15;7.30;;;4.00;;
9898;SDS011;4988;49.238;6.698;2023-08-24T10:55:04;8.07;;;4.17;;
9898;SDS011;4988;49.238;6.698;2023-08-24T10:57:47;10.33;;;4.20;;
9898;SDS011;4988;49.238;6.698;2023-08-24T11:00:21;7.87;;;4.17;;
9898;SDS011;4988;49.238;6.698;2023-08-24T11:02:48;10.80;;;4.50;;
9898;SDS011;4988;49.238;6.698;2023-08-24T11:05:24;6.03;;;4.03;;
9898;SDS011;4988;49.238;6.698;2023-08-24T11:07:57;5.27;;;4.03;;
9898;SDS011;4988;49.238;6.698;2023-08-24T11:10:25;5.50;;;3.83;;
9898;SDS011;4988;49.238;6.698;2023-08-24T11:15:31;5.23;;;4.10;;
9898;SDS011;4988;49.238;6.698;2023-08-24T11:20:46;7.87;;;3.90;;
9898;SDS011;4988;49.238;6.698;2023-08-24T11:23:16;7.23;;;3.97;;
9898;SDS011;4988;49.238;6.698;2023-08-24T11:25:42;4.37;;;3.83;;
9898;SDS011;4988;49.238;6.698;2023-08-24T11:28:08;10.10;;;3.80;;
9898;SDS011;4988;49.238;6.698;2023-08-24T11:30:33;6.27;;;3.97;;
9898;SDS011;4988;49.238;6.698;2023-08-24T11:33:00;7.90;;;3.63;;
9898;SDS011;4988;49.238;6.698;2023-08-24T11:35:26;8.53;;;4.10;;
9898;SDS011;4988;49.238;6.698;2023-08-24T11:37:52;6.03;;;3.70;;
9898;SDS011;4988;49.238;6.698;2023-08-24T11:40:21;7.83;;;4.30;;
9898;SDS011;4988;49.238;6.698;2023-08-24T11:42:56;10.00;;;4.00;;
9898;SDS011;4988;49.238;6.698;2023-08-24T11:45:21;5.13;;;3.83;;
9898;SDS011;4988;49.238;6.698;2023-08-24T11:47:48;7.53;;;4.03;;
9898;SDS011;4988;49.238;6.698;2023-08-24T11:50:14;6.53;;;3.80;;
9898;SDS011;4988;49.238;6.698;2023-08-24T11:52:40;5.87;;;3.80;;
9898;SDS011;4988;49.238;6.698;2023-08-24T11:55:08;8.20;;;3.67;;
9898;SDS011;4988;49.238;6.698;2023-08-24T11:57:37;8.87;;;4.07;;
9898;SDS011;4988;49.238;6.698;2023-08-24T12:00:03;6.50;;;4.13;;
9898;SDS011;4988;49.238;6.698;2023-08-24T12:02:30;7.00;;;3.70;;
9898;SDS011;4988;49.238;6.698;2023-08-24T12:04:56;6.63;;;4.17;;
9898;SDS011;4988;49.238;6.698;2023-08-24T12:07:22;9.70;;;4.00;;
9898;SDS011;4988;49.238;6.698;2023-08-24T12:09:48;7.80;;;4.00;;
9898;SDS011;4988;49.238;6.698;2023-08-24T12:12:18;4.80;;;3.97;;
9898;SDS011;4988;49.238;6.698;2023-08-24T12:14:48;10.27;;;4.30;;
9898;SDS011;4988;49.238;6.698;2023-08-24T12:17:14;6.30;;;3.90;;
9898;SDS011;4988;49.238;6.698;2023-08-24T12:19:41;7.00;;;4.20;;
9898;SDS011;4988;49.238;6.698;2023-08-24T12:22:14;9.57;;;4.70;;
9898;SDS011;4988;49.238;6.698;2023-08-24T12:24:44;6.40;;;4.20;;
9898;SDS011;4988;49.238;6.698;2023-08-24T12:27:17;10.87;;;4.30;;
9898;SDS011;4988;49.238;6.698;2023-08-24T12:29:44;7.07;;;4.17;;
9898;SDS011;4988;49.238;6.698;2023-08-24T12:32:10;9.20;;;4.53;;
9898;SDS011;4988;49.238;6.698;2023-08-24T12:34:35;7.30;;;4.03;;
9898;SDS011;4988;49.238;6.698;2023-08-24T12:37:01;8.17;;;4.80;;
9898;SDS011;4988;49.238;6.698;2023-08-24T12:39:26;9.53;;;4.20;;
9898;SDS011;4988;49.238;6.698;2023-08-24T12:41:52;17.63;;;5.20;;
9898;SDS011;4988;49.238;6.698;2023-08-24T12:44:17;8.80;;;4.23;;
9898;SDS011;4988;49.238;6.698;2023-08-24T12:46:42;6.97;;;4.47;;
9898;SDS011;4988;49.238;6.698;2023-08-24T12:49:08;7.77;;;4.40;;
9898;SDS011;4988;49.238;6.698;2023-08-24T12:51:33;8.37;;;4.10;;
9898;SDS011;4988;49.238;6.698;2023-08-24T12:53:58;11.37;;;4.70;;
9898;SDS011;4988;49.238;6.698;2023-08-24T12:56:24;7.07;;;4.70;;
9898;SDS011;4988;49.238;6.698;2023-08-24T12:58:49;7.00;;;4.57;;
9898;SDS011;4988;49.238;6.698;2023-08-24T13:01:14;11.53;;;5.10;;
9898;SDS011;4988;49.238;6.698;2023-08-24T13:03:40;9.40;;;4.67;;
9898;SDS011;4988;49.238;6.698;2023-08-24T13:06:08;10.43;;;5.23;;
9898;SDS011;4988;49.238;6.698;2023-08-24T13:08:33;9.93;;;4.90;;
9898;SDS011;4988;49.238;6.698;2023-08-24T13:10:59;11.30;;;5.87;;
9898;SDS011;4988;49.238;6.698;2023-08-24T13:13:24;11.47;;;5.87;;
9898;SDS011;4988;49.238;6.698;2023-08-24T13:15:49;10.43;;;5.33;;
9898;SDS011;4988;49.238;6.698;2023-08-24T13:18:15;9.40;;;5.83;;
9898;SDS011;4988;49.238;6.698;2023-08-24T13:20:41;11.30;;;5.50;;
9898;SDS011;4988;49.238;6.698;2023-08-24T13:23:07;15.73;;;6.80;;
9898;SDS011;4988;49.238;6.698;2023-08-24T13:25:32;9.93;;;6.03;;
9898;SDS011;4988;49.238;6.698;2023-08-24T13:27:57;11.50;;;6.70;;
9898;SDS011;4988;49.238;6.698;2023-08-24T13:30:23;13.73;;;6.30;;
9898;SDS011;4988;49.238;6.698;2023-08-24T13:32:48;16.87;;;7.13;;
9898;SDS011;4988;49.238;6.698;2023-08-24T13:35:14;10.53;;;6.53;;
9898;SDS011;4988;49.238;6.698;2023-08-24T13:37:39;17.17;;;7.50;;
9898;SDS011;4988;49.238;6.698;2023-08-24T13:40:05;11.57;;;7.03;;
9898;SDS011;4988;49.238;6.698;2023-08-24T13:42:32;13.53;;;7.17;;
9898;SDS011;4988;49.238;6.698;2023-08-24T13:44:57;15.37;;;7.47;;
9898;SDS011;4988;49.238;6.698;2023-08-24T13:47:22;15.67;;;6.83;;
9898;SDS011;4988;49.238;6.698;2023-08-24T13:49:48;12.93;;;6.37;;
9898;SDS011;4988;49.238;6.698;2023-08-24T13:52:13;10.73;;;5.90;;
9898;SDS011;4988;49.238;6.698;2023-08-24T13:54:39;12.13;;;5.60;;
9898;SDS011;4988;49.238;6.698;2023-08-24T13:57:04;9.30;;;5.70;;
9898;SDS011;4988;49.238;6.698;2023-08-24T13:59:30;8.83;;;5.50;;
9898;SDS011;4988;49.238;6.698;2023-08-24T14:01:55;7.07;;;5.47;;
9898;SDS011;4988;49.238;6.698;2023-08-24T14:04:21;10.10;;;5.90;;
9898;SDS011;4988;49.238;6.698;2023-08-24T14:06:46;11.40;;;6.03;;
9898;SDS011;4988;49.238;6.698;2023-08-24T14:09:13;8.73;;;5.50;;
9898;SDS011;4988;49.238;6.698;2023-08-24T14:11:38;13.27;;;5.90;;
9898;SDS011;4988;49.238;6.698;2023-08-24T14:14:04;11.27;;;5.70;;
9898;SDS011;4988;49.238;6.698;2023-08-24T14:16:30;10.20;;;5.57;;
9898;SDS011;4988;49.238;6.698;2023-08-24T14:18:56;8.50;;;5.50;;
9898;SDS011;4988;49.238;6.698;2023-08-24T14:21:22;11.30;;;5.60;;
9898;SDS011;4988;49.238;6.698;2023-08-24T14:23:48;12.53;;;5.33;;
9898;SDS011;4988;49.238;6.698;2023-08-24T14:26:14;13.03;;;5.60;;
9898;SDS011;4988;49.238;6.698;2023-08-24T14:28:49;10.53;;;5.97;;
9898;SDS011;4988;49.238;6.698;2023-08-24T14:31:18;11.77;;;6.50;;
9898;SDS011;4988;49.238;6.698;2023-08-24T14:33:43;10.27;;;6.27;;
9898;SDS011;4988;49.238;6.698;2023-08-24T14:36:09;13.17;;;5.97;;
9898;SDS011;4988;49.238;6.698;2023-08-24T14:38:35;8.77;;;6.33;;
9898;SDS011;4988;49.238;6.698;2023-08-24T14:41:01;10.37;;;6.57;;
9898;SDS011;4988;49.238;6.698;2023-08-24T14:43:28;8.67;;;5.57;;
9898;SDS011;4988;49.238;6.698;2023-08-24T14:45:53;9.87;;;5.73;;
9898;SDS011;4988;49.238;6.698;2023-08-24T14:48:19;11.77;;;5.77;;
9898;SDS011;4988;49.238;6.698;2023-08-24T14:50:44;12.93;;;5.97;;
9898;SDS011;4988;49.238;6.698;2023-08-24T14:53:09;10.33;;;5.90;;
9898;SDS011;4988;49.238;6.698;2023-08-24T14:55:37;10.73;;;5.80;;
9898;SDS011;4988;49.238;6.698;2023-08-24T14:58:03;10.33;;;5.73;;
9898;SDS011;4988;49.238;6.698;2023-08-24T15:00:28;12.67;;;6.50;;
9898;SDS011;4988;49.238;6.698;2023-08-24T15:02:54;8.53;;;5.17;;
9898;SDS011;4988;49.238;6.698;2023-08-24T15:05:19;8.73;;;4.80;;
9898;SDS011;4988;49.238;6.698;2023-08-24T15:07:44;8.63;;;4.63;;
9898;SDS011;4988;49.238;6.698;2023-08-24T15:10:10;9.17;;;4.83;;
9898;SDS011;4988;49.238;6.698;2023-08-24T15:12:36;7.60;;;4.60;;
9898;SDS011;4988;49.238;6.698;2023-08-24T15:15:02;7.40;;;4.43;;